createdAt,value
2019-01-19T00:01:47.348Z,8.57
2019-01-19T00:04:43.042Z,7.33
2019-01-19T00:07:29.441Z,6.20
2019-01-19T00:10:06.878Z,4.93
2019-01-19T00:13:00.909Z,7.40
2019-01-19T00:15:32.439Z,8.07
2019-01-19T00:18:37.547Z,9.80
2019-01-19T00:21:09.080Z,6.53
2019-01-19T00:23:49.439Z,9.10
2019-01-19T00:26:47.911Z,6.93
2019-01-19T00:29:28.362Z,6.40
2019-01-19T00:32:08.825Z,6.40
2019-01-19T00:35:01.243Z,10.57
2019-01-19T00:37:35.263Z,4.93
2019-01-19T00:40:23.376Z,6.37
2019-01-19T00:42:55.135Z,8.53
2019-01-19T00:45:41.356Z,6.40
2019-01-19T00:48:24.931Z,4.97
2019-01-19T00:50:56.465Z,7.23
2019-01-19T00:53:42.768Z,7.37
2019-01-19T00:56:38.006Z,4.17
2019-01-19T00:59:09.521Z,9.23
2019-01-19T01:01:53.034Z,7.37
2019-01-19T01:04:44.453Z,7.40
2019-01-19T01:07:18.976Z,8.27
2019-01-19T01:09:53.040Z,7.53
2019-01-19T01:12:42.657Z,8.13
2019-01-19T01:15:29.531Z,6.90
2019-01-19T01:18:01.062Z,4.90
2019-01-19T01:20:41.238Z,7.87
2019-01-19T01:23:33.734Z,8.87
2019-01-19T01:26:26.560Z,8.10
2019-01-19T01:29:01.178Z,6.13
2019-01-19T01:31:35.888Z,6.57
2019-01-19T01:34:13.334Z,6.23
2019-01-19T01:36:47.713Z,4.43
2019-01-19T01:39:36.033Z,6.67
2019-01-19T01:42:13.347Z,9.47
2019-01-19T01:44:47.528Z,6.23
2019-01-19T01:47:49.498Z,5.70
2019-01-19T01:50:21.004Z,9.23
2019-01-19T01:52:52.541Z,14.03
2019-01-19T01:55:24.057Z,5.13
2019-01-19T01:57:55.580Z,8.87
2019-01-19T02:00:45.701Z,7.87
2019-01-19T02:03:47.280Z,9.50
2019-01-19T02:06:33.955Z,6.10
2019-01-19T02:09:14.350Z,14.13
2019-01-19T02:12:02.232Z,10.33
2019-01-19T02:14:42.565Z,6.30
2019-01-19T02:17:25.886Z,7.00
2019-01-19T02:20:15.495Z,7.40
2019-01-19T02:22:53.147Z,9.90
2019-01-19T02:25:36.735Z,7.70
2019-01-19T02:28:17.257Z,8.77
2019-01-19T02:31:03.764Z,5.10
2019-01-19T02:34:05.459Z,6.60
2019-01-19T02:36:54.531Z,8.83
2019-01-19T02:39:40.521Z,14.43
2019-01-19T02:42:26.987Z,9.13
2019-01-19T02:45:13.528Z,6.33
2019-01-19T02:47:56.784Z,8.10
2019-01-19T02:50:34.094Z,10.53
2019-01-19T02:53:28.222Z,6.50
2019-01-19T02:56:08.309Z,7.83
2019-01-19T02:58:54.812Z,6.00
2019-01-19T03:01:44.022Z,5.67
2019-01-19T03:04:24.580Z,5.20
2019-01-19T03:07:15.575Z,6.40
2019-01-19T03:09:50.117Z,8.03
2019-01-19T03:12:21.682Z,7.50
2019-01-19T03:15:01.687Z,8.13
2019-01-19T03:17:44.985Z,8.83
2019-01-19T03:20:40.147Z,4.63
2019-01-19T03:23:26.523Z,6.27
2019-01-19T03:26:03.577Z,5.60
2019-01-19T03:28:43.863Z,7.33
2019-01-19T03:31:42.670Z,10.10
2019-01-19T03:34:29.092Z,4.93
2019-01-19T03:37:20.085Z,8.70
2019-01-19T03:39:57.431Z,5.60
2019-01-19T03:42:31.899Z,5.90
2019-01-19T03:45:15.365Z,7.27
2019-01-19T03:47:52.619Z,8.90
2019-01-19T03:50:29.649Z,9.63
2019-01-19T03:53:14.110Z,7.10
2019-01-19T03:56:06.273Z,10.53
2019-01-19T03:58:53.075Z,5.10
2019-01-19T04:01:45.475Z,9.47
2019-01-19T04:04:22.878Z,5.77
2019-01-19T04:07:10.960Z,4.90
2019-01-19T04:10:04.805Z,6.83
2019-01-19T04:12:54.141Z,10.70
2019-01-19T04:15:40.547Z,7.63
2019-01-19T04:18:12.081Z,5.40
2019-01-19T04:21:13.647Z,7.93
2019-01-19T04:23:45.278Z,6.53
2019-01-19T04:26:15.119Z,7.50
2019-01-19T04:28:44.048Z,5.70
2019-01-19T04:31:12.493Z,8.93
2019-01-19T04:33:40.975Z,10.23
2019-01-19T04:36:10.590Z,9.03
2019-01-19T04:38:40.438Z,7.37
2019-01-19T04:41:08.890Z,9.97
2019-01-19T04:43:37.363Z,7.40
2019-01-19T04:46:05.898Z,5.33
2019-01-19T04:48:34.948Z,6.70
2019-01-19T04:51:03.521Z,11.07
2019-01-19T04:53:32.000Z,9.20
2019-01-19T04:56:00.451Z,7.93
2019-01-19T04:58:28.925Z,5.70
2019-01-19T05:00:57.387Z,10.23
2019-01-19T05:03:25.862Z,6.57
2019-01-19T05:05:54.310Z,8.27
2019-01-19T05:08:22.790Z,8.10
2019-01-19T05:10:51.241Z,5.60
2019-01-19T05:13:19.721Z,8.03
2019-01-19T05:15:48.176Z,7.27
2019-01-19T05:18:17.126Z,12.47
2019-01-19T05:20:45.592Z,6.40
2019-01-19T05:23:14.078Z,9.63
2019-01-19T05:25:42.527Z,9.47
2019-01-19T05:28:10.996Z,8.53
2019-01-19T05:30:39.504Z,9.07
2019-01-19T05:33:07.950Z,5.33
2019-01-19T05:35:36.398Z,9.87
2019-01-19T05:38:04.879Z,8.40
2019-01-19T05:40:33.333Z,8.73
2019-01-19T05:43:01.806Z,11.33
2019-01-19T05:45:30.261Z,10.83
2019-01-19T05:47:58.712Z,6.23
2019-01-19T05:50:27.192Z,7.50
2019-01-19T05:52:55.652Z,9.90
2019-01-19T05:55:24.141Z,11.90
2019-01-19T05:57:52.587Z,9.70
2019-01-19T06:00:24.955Z,9.57
2019-01-19T06:02:53.419Z,9.47
2019-01-19T06:05:21.898Z,15.70
2019-01-19T06:07:50.344Z,7.07
2019-01-19T06:10:18.830Z,8.53
2019-01-19T06:12:47.310Z,12.40
2019-01-19T06:15:16.538Z,7.67
2019-01-19T06:17:45.092Z,11.67
2019-01-19T06:20:16.169Z,10.87
2019-01-19T06:22:44.715Z,14.27
2019-01-19T06:25:15.149Z,10.57
2019-01-19T06:27:43.868Z,11.87
2019-01-19T06:30:15.452Z,9.43
2019-01-19T06:32:43.911Z,13.47
2019-01-19T06:35:12.389Z,8.73
2019-01-19T06:37:40.849Z,9.40
2019-01-19T06:40:15.194Z,10.20
2019-01-19T06:42:43.664Z,13.37
2019-01-19T06:45:14.942Z,12.87
2019-01-19T06:47:43.413Z,11.20
2019-01-19T06:50:17.201Z,11.00
2019-01-19T06:52:45.894Z,9.97
2019-01-19T06:55:19.907Z,11.40
2019-01-19T06:57:48.381Z,13.33
2019-01-19T07:00:18.503Z,9.37
2019-01-19T07:02:46.957Z,13.70
2019-01-19T07:05:15.498Z,10.60
2019-01-19T07:07:43.962Z,22.47
2019-01-19T07:10:15.345Z,12.53
2019-01-19T07:12:43.803Z,16.47
2019-01-19T07:15:13.515Z,15.67
2019-01-19T07:17:41.975Z,13.27
2019-01-19T07:20:13.385Z,11.30
2019-01-19T07:22:41.924Z,14.57
2019-01-19T07:25:10.585Z,12.67
2019-01-19T07:27:39.030Z,15.10
2019-01-19T07:30:10.570Z,12.70
2019-01-19T07:32:39.054Z,14.60
2019-01-19T07:35:07.676Z,11.37
2019-01-19T07:37:36.137Z,13.17
2019-01-19T07:40:07.301Z,22.23
2019-01-19T07:42:36.522Z,13.00
2019-01-19T07:45:07.247Z,14.93
2019-01-19T07:47:36.065Z,16.10
2019-01-19T07:50:07.045Z,13.93
2019-01-19T07:52:35.491Z,15.83
2019-01-19T07:55:05.508Z,15.20
2019-01-19T07:57:33.979Z,16.40
2019-01-19T08:00:02.544Z,13.97
2019-01-19T08:02:31.022Z,15.33
2019-01-19T08:04:59.485Z,13.57
2019-01-19T08:07:27.959Z,21.60
2019-01-19T08:09:56.436Z,17.20
2019-01-19T08:12:24.887Z,12.17
2019-01-19T08:14:53.360Z,14.80
2019-01-19T08:17:21.830Z,14.73
2019-01-19T08:19:50.291Z,14.83
2019-01-19T08:22:18.762Z,15.13
2019-01-19T08:24:47.215Z,14.07
2019-01-19T08:27:15.695Z,15.57
2019-01-19T08:29:44.173Z,17.33
2019-01-19T08:32:12.662Z,12.40
2019-01-19T08:34:41.140Z,13.70
2019-01-19T08:37:09.618Z,12.47
2019-01-19T08:39:38.082Z,15.57
2019-01-19T08:42:06.570Z,16.83
2019-01-19T08:44:35.032Z,15.83
2019-01-19T08:47:03.587Z,17.70
2019-01-19T08:49:32.034Z,16.27
2019-01-19T08:52:00.592Z,20.57
2019-01-19T08:54:29.064Z,16.97
2019-01-19T08:56:57.546Z,13.97
2019-01-19T08:59:26.083Z,15.20
2019-01-19T09:01:54.557Z,12.50
2019-01-19T09:04:23.031Z,13.93
2019-01-19T09:06:51.527Z,17.10
2019-01-19T09:09:20.014Z,17.47
2019-01-19T09:11:48.472Z,15.33
2019-01-19T09:14:16.955Z,16.23
2019-01-19T09:16:45.431Z,20.73
2019-01-19T09:19:13.915Z,17.73
2019-01-19T09:21:42.403Z,16.77
2019-01-19T09:24:11.540Z,22.67
2019-01-19T09:26:40.019Z,15.40
2019-01-19T09:29:08.502Z,14.13
2019-01-19T09:31:36.942Z,16.30
2019-01-19T09:34:05.798Z,14.63
2019-01-19T09:36:34.345Z,15.97
2019-01-19T09:39:02.794Z,15.43
2019-01-19T09:41:31.282Z,17.57
2019-01-19T09:43:59.752Z,25.03
2019-01-19T09:46:28.231Z,17.60
2019-01-19T09:48:56.688Z,17.97
2019-01-19T09:51:25.185Z,16.03
2019-01-19T09:53:53.644Z,19.63
2019-01-19T09:56:22.126Z,24.30
2019-01-19T09:58:50.598Z,23.43
2019-01-19T10:01:19.088Z,15.83
2019-01-19T10:03:47.576Z,21.07
2019-01-19T10:06:16.075Z,19.77
2019-01-19T10:08:44.546Z,21.50
2019-01-19T10:11:13.069Z,19.00
2019-01-19T10:13:41.549Z,15.73
2019-01-19T10:16:10.082Z,19.53
2019-01-19T10:18:38.565Z,18.57
2019-01-19T10:21:07.219Z,20.03
2019-01-19T10:23:35.712Z,19.10
2019-01-19T10:26:04.183Z,20.00
2019-01-19T10:28:32.667Z,16.77
2019-01-19T10:31:01.145Z,18.37
2019-01-19T10:33:29.631Z,18.60
2019-01-19T10:35:58.083Z,17.50
2019-01-19T10:38:26.644Z,16.33
2019-01-19T10:40:55.107Z,18.47
2019-01-19T10:43:23.607Z,18.13
2019-01-19T10:45:52.068Z,18.10
2019-01-19T10:48:20.625Z,21.03
2019-01-19T10:50:49.224Z,18.30
2019-01-19T10:53:17.716Z,18.87
2019-01-19T10:55:46.178Z,20.07
2019-01-19T10:58:14.682Z,18.73
2019-01-19T11:00:43.169Z,25.17
2019-01-19T11:03:11.716Z,21.40
2019-01-19T11:05:40.203Z,20.53
2019-01-19T11:08:10.115Z,18.17
2019-01-19T11:10:38.593Z,26.93
2019-01-19T11:13:07.240Z,20.70
2019-01-19T11:15:35.696Z,16.17
2019-01-19T11:18:04.344Z,14.87
2019-01-19T11:20:33.166Z,16.13
2019-01-19T11:23:02.332Z,20.27
2019-01-19T11:25:31.128Z,18.60
2019-01-19T11:27:59.607Z,17.43
2019-01-19T11:30:32.563Z,30.43
2019-01-19T11:33:01.041Z,17.13
2019-01-19T11:35:29.859Z,20.90
2019-01-19T11:37:58.513Z,19.30
2019-01-19T11:40:34.810Z,19.87
2019-01-19T11:43:03.857Z,20.70
2019-01-19T11:45:32.322Z,18.87
2019-01-19T11:48:00.799Z,16.77
2019-01-19T11:50:29.998Z,19.37
2019-01-19T11:52:58.483Z,22.40
2019-01-19T11:55:27.029Z,15.00
2019-01-19T11:58:03.260Z,19.60
2019-01-19T12:00:34.269Z,19.53
2019-01-19T12:03:02.828Z,19.93
2019-01-19T12:05:31.286Z,17.23
2019-01-19T12:07:59.837Z,17.67
2019-01-19T12:10:30.435Z,16.20
2019-01-19T12:12:59.281Z,19.93
2019-01-19T12:15:28.506Z,17.83
2019-01-19T12:17:57.159Z,19.37
2019-01-19T12:20:31.101Z,16.77
2019-01-19T12:22:59.683Z,20.33
2019-01-19T12:25:28.330Z,19.87
2019-01-19T12:27:56.781Z,15.80
2019-01-19T12:30:30.355Z,18.47
2019-01-19T12:32:58.890Z,18.90
2019-01-19T12:35:27.705Z,21.43
2019-01-19T12:37:56.914Z,21.53
2019-01-19T12:40:27.900Z,19.50
2019-01-19T12:43:01.636Z,17.83
2019-01-19T12:45:33.527Z,22.07
2019-01-19T12:48:01.982Z,22.07
2019-01-19T12:50:30.471Z,17.40
2019-01-19T12:52:58.929Z,16.37
2019-01-19T12:55:28.276Z,16.13
2019-01-19T12:57:56.737Z,18.97
2019-01-19T13:00:27.248Z,19.30
2019-01-19T13:02:56.549Z,20.57
2019-01-19T13:05:47.816Z,20.50
2019-01-19T13:08:19.701Z,18.33
2019-01-19T13:11:07.645Z,17.07
2019-01-19T13:13:38.747Z,17.53
2019-01-19T13:16:24.939Z,18.90
2019-01-19T13:18:56.465Z,17.50
2019-01-19T13:21:30.504Z,14.30
2019-01-19T13:24:18.477Z,16.37
2019-01-19T13:27:06.622Z,15.03
2019-01-19T13:30:11.728Z,24.00
2019-01-19T13:32:45.951Z,18.17
2019-01-19T13:35:29.513Z,20.33
2019-01-19T13:38:10.217Z,16.37
2019-01-19T13:41:15.010Z,17.53
2019-01-19T13:43:49.510Z,16.73
2019-01-19T13:46:37.778Z,18.10
2019-01-19T13:49:09.301Z,17.97
2019-01-19T13:51:43.447Z,16.80
2019-01-19T13:54:31.464Z,16.27
2019-01-19T13:57:11.902Z,13.10
2019-01-19T13:59:55.299Z,16.93
2019-01-19T14:02:35.587Z,15.40
2019-01-19T14:05:19.381Z,15.10
2019-01-19T14:08:02.959Z,23.73
2019-01-19T14:10:37.305Z,20.50
2019-01-19T14:13:17.125Z,21.13
2019-01-19T14:16:00.581Z,18.93
2019-01-19T14:18:40.769Z,19.47
2019-01-19T14:21:15.211Z,19.27
2019-01-19T14:23:49.936Z,15.37
2019-01-19T14:26:27.280Z,21.97
2019-01-19T14:29:01.700Z,22.30
2019-01-19T14:31:52.801Z,17.53
2019-01-19T14:34:30.054Z,32.80
2019-01-19T14:37:22.469Z,19.80
2019-01-19T14:39:53.976Z,22.60
2019-01-19T14:42:28.186Z,28.07
2019-01-19T14:45:23.472Z,15.97
2019-01-19T14:47:55.008Z,21.73
2019-01-19T14:50:44.611Z,22.13
2019-01-19T14:53:42.968Z,17.53
2019-01-19T14:56:33.665Z,16.90
2019-01-19T14:59:10.753Z,18.47
2019-01-19T15:01:54.045Z,22.23
2019-01-19T15:04:25.564Z,17.20
2019-01-19T15:07:02.686Z,20.30
2019-01-19T15:09:39.700Z,16.83
2019-01-19T15:12:17.120Z,25.37
2019-01-19T15:14:57.731Z,22.17
2019-01-19T15:17:44.061Z,26.80
2019-01-19T15:20:33.609Z,19.10
2019-01-19T15:23:23.305Z,20.37
2019-01-19T15:26:09.821Z,22.80
2019-01-19T15:28:46.864Z,25.43
2019-01-19T15:31:18.377Z,29.97
2019-01-19T15:34:04.897Z,18.23
2019-01-19T15:36:45.181Z,20.57
2019-01-19T15:39:19.399Z,22.67
2019-01-19T15:42:12.183Z,26.80
2019-01-19T15:44:58.295Z,23.03
2019-01-19T15:47:29.816Z,21.67
2019-01-19T15:50:18.109Z,21.30
2019-01-19T15:52:55.554Z,31.13
2019-01-19T15:55:27.070Z,26.13
2019-01-19T15:58:22.779Z,31.30
2019-01-19T16:01:10.705Z,28.20
2019-01-19T16:03:56.561Z,25.63
2019-01-19T16:06:30.770Z,33.57
2019-01-19T16:09:07.553Z,22.47
2019-01-19T16:11:39.066Z,30.47
2019-01-19T16:14:21.873Z,30.70
2019-01-19T16:17:05.432Z,27.57
2019-01-19T16:19:51.527Z,29.03
2019-01-19T16:22:53.628Z,23.60
2019-01-19T16:25:28.070Z,26.97
2019-01-19T16:28:32.853Z,29.90
2019-01-19T16:31:16.260Z,26.30
2019-01-19T16:33:50.787Z,28.50
2019-01-19T16:36:34.422Z,25.87
2019-01-19T16:39:06.331Z,28.97
2019-01-19T16:41:56.296Z,32.13
2019-01-19T16:44:27.839Z,32.13
2019-01-19T16:47:19.003Z,22.70
2019-01-19T16:49:53.031Z,27.17
2019-01-19T16:52:30.407Z,25.73
2019-01-19T16:55:24.452Z,30.53
2019-01-19T16:58:07.562Z,20.73
2019-01-19T17:00:53.917Z,31.97
2019-01-19T17:03:40.547Z,24.20
2019-01-19T17:06:30.224Z,26.63
2019-01-19T17:09:10.577Z,27.30
2019-01-19T17:12:06.179Z,28.37
2019-01-19T17:15:10.890Z,22.87
2019-01-19T17:17:51.077Z,33.73
2019-01-19T17:20:34.611Z,27.97
2019-01-19T17:23:34.058Z,23.07
2019-01-19T17:26:11.396Z,30.40
2019-01-19T17:28:45.586Z,24.30
2019-01-19T17:31:25.840Z,23.10
2019-01-19T17:34:18.581Z,24.37
2019-01-19T17:37:02.188Z,24.53
2019-01-19T17:39:42.719Z,25.47
2019-01-19T17:42:14.259Z,21.53
2019-01-19T17:44:57.856Z,38.73
2019-01-19T17:47:32.246Z,26.57
2019-01-19T17:50:13.060Z,22.67
2019-01-19T17:52:47.523Z,25.43
2019-01-19T17:55:35.926Z,21.37
2019-01-19T17:58:22.526Z,26.43
2019-01-19T18:01:09.295Z,28.70
2019-01-19T18:03:55.738Z,25.03
2019-01-19T18:06:35.973Z,27.60
2019-01-19T18:09:19.341Z,29.87
2019-01-19T18:11:53.813Z,23.37
2019-01-19T18:14:33.956Z,29.70
2019-01-19T18:17:25.148Z,24.63
2019-01-19T18:20:05.542Z,29.80
2019-01-19T18:22:54.594Z,26.87
2019-01-19T18:25:43.972Z,21.40
2019-01-19T18:28:28.300Z,23.70
2019-01-19T18:31:19.928Z,21.80
2019-01-19T18:34:15.463Z,27.03
2019-01-19T18:36:55.723Z,25.33
2019-01-19T18:39:33.157Z,25.97
2019-01-19T18:42:25.541Z,28.03
2019-01-19T18:45:15.119Z,28.10
2019-01-19T18:47:51.954Z,29.93
2019-01-19T18:50:28.997Z,29.17
2019-01-19T18:53:15.416Z,31.13
2019-01-19T18:55:49.621Z,27.40
2019-01-19T18:58:45.314Z,23.30
2019-01-19T19:01:22.532Z,28.10
2019-01-19T19:03:59.750Z,26.97
2019-01-19T19:06:50.520Z,21.17
2019-01-19T19:09:27.741Z,31.03
2019-01-19T19:12:14.145Z,31.43
2019-01-19T19:15:00.719Z,27.63
2019-01-19T19:17:34.944Z,23.13
2019-01-19T19:20:15.599Z,24.00
2019-01-19T19:22:52.918Z,23.63
2019-01-19T19:25:53.430Z,26.30
2019-01-19T19:28:44.636Z,26.97
2019-01-19T19:31:21.936Z,28.60
2019-01-19T19:34:08.254Z,22.60
2019-01-19T19:36:48.307Z,26.83
2019-01-19T19:39:41.043Z,28.20
2019-01-19T19:42:21.283Z,23.37
2019-01-19T19:45:08.058Z,24.73
2019-01-19T19:47:57.504Z,24.90
2019-01-19T19:50:53.065Z,30.60
2019-01-19T19:53:21.524Z,22.23
2019-01-19T19:55:48.871Z,23.30
2019-01-19T19:58:17.332Z,23.27
2019-01-19T20:00:46.090Z,29.60
2019-01-19T20:03:14.574Z,24.53
2019-01-19T20:05:43.117Z,23.27
2019-01-19T20:08:11.602Z,27.10
2019-01-19T20:10:40.085Z,23.10
2019-01-19T20:13:08.542Z,24.87
2019-01-19T20:15:37.042Z,27.57
2019-01-19T20:18:05.853Z,24.03
2019-01-19T20:20:34.345Z,25.30
2019-01-19T20:23:02.810Z,20.07
2019-01-19T20:25:31.290Z,28.37
2019-01-19T20:27:59.759Z,20.17
2019-01-19T20:30:28.251Z,25.93
2019-01-19T20:32:56.701Z,25.03
2019-01-19T20:35:25.227Z,26.57
2019-01-19T20:37:53.710Z,24.27
2019-01-19T20:40:24.492Z,28.67
2019-01-19T20:42:52.393Z,21.20
2019-01-19T20:45:20.864Z,22.47
2019-01-19T20:47:49.354Z,22.10
2019-01-19T20:50:17.813Z,25.33
2019-01-19T20:52:46.312Z,24.03
2019-01-19T20:55:14.766Z,24.30
2019-01-19T20:57:43.253Z,22.40
2019-01-19T21:00:19.279Z,23.27
2019-01-19T21:02:47.761Z,21.27
2019-01-19T21:05:16.222Z,23.13
2019-01-19T21:07:44.719Z,22.93
2019-01-19T21:10:13.439Z,24.57
2019-01-19T21:12:41.920Z,25.13
2019-01-19T21:15:15.654Z,33.67
2019-01-19T21:17:44.211Z,29.83
2019-01-19T21:20:15.025Z,22.87
2019-01-19T21:22:43.526Z,22.97
2019-01-19T21:25:13.313Z,27.60
2019-01-19T21:27:41.974Z,25.50
2019-01-19T21:30:17.411Z,30.17
2019-01-19T21:32:45.950Z,26.70
2019-01-19T21:35:14.383Z,27.62
2019-01-19T21:37:42.867Z,23.57
2019-01-19T21:40:13.168Z,24.77
2019-01-19T21:42:41.661Z,28.43
2019-01-19T21:45:16.144Z,22.37
2019-01-19T21:47:44.645Z,21.30
2019-01-19T21:50:13.565Z,25.63
2019-01-19T21:52:42.050Z,25.77
2019-01-19T21:55:10.930Z,25.67
2019-01-19T21:57:39.379Z,24.35
2019-01-19T22:00:16.364Z,22.07
2019-01-19T22:02:44.870Z,27.83
2019-01-19T22:05:13.676Z,25.27
2019-01-19T22:07:42.167Z,27.90
2019-01-19T22:10:13.769Z,21.23
2019-01-19T22:12:42.269Z,27.00
2019-01-19T22:15:16.085Z,26.00
2019-01-19T22:17:44.578Z,30.67
2019-01-19T22:20:15.200Z,22.57
2019-01-19T22:22:43.679Z,23.23
2019-01-19T22:25:12.532Z,34.63
2019-01-19T22:27:43.067Z,26.33
2019-01-19T22:30:16.944Z,28.47
2019-01-19T22:32:45.897Z,27.67
2019-01-19T22:35:14.715Z,23.70
2019-01-19T22:37:43.179Z,23.00
2019-01-19T22:40:17.157Z,25.03
2019-01-19T22:42:46.272Z,27.37
2019-01-19T22:45:16.515Z,23.70
2019-01-19T22:47:45.508Z,28.57
2019-01-19T22:50:18.068Z,29.90
2019-01-19T22:52:46.540Z,27.83
2019-01-19T22:55:15.372Z,25.03
2019-01-19T22:57:43.841Z,22.80
2019-01-19T23:00:28.894Z,26.13
2019-01-19T23:02:57.379Z,29.40
2019-01-19T23:05:25.873Z,25.27
2019-01-19T23:07:54.344Z,24.67
2019-01-19T23:10:22.908Z,26.50
2019-01-19T23:12:51.368Z,30.43
2019-01-19T23:15:19.857Z,27.67
2019-01-19T23:17:48.331Z,27.70
2019-01-19T23:20:17.192Z,31.60
2019-01-19T23:22:45.728Z,26.27
2019-01-19T23:25:14.222Z,25.03
2019-01-19T23:27:42.689Z,34.93
2019-01-19T23:30:15.991Z,26.63
2019-01-19T23:32:44.466Z,30.27
2019-01-19T23:35:12.960Z,27.40
2019-01-19T23:37:41.442Z,25.33
2019-01-19T23:40:12.779Z,26.70
2019-01-19T23:42:47.127Z,24.73
2019-01-19T23:45:11.843Z,26.00
2019-01-19T23:47:40.317Z,30.10
2019-01-19T23:50:10.462Z,28.63
2019-01-19T23:52:38.927Z,34.57
2019-01-19T23:55:07.911Z,32.00
2019-01-19T23:57:36.324Z,30.13
